sensor_id;sensor_type;location;lat;lon;timestamp;P1;durP1;ratioP1;P2;durP2;ratioP2
3924;SDS011;1977;52.274;10.518;2023-07-31T00:00:10;2.50;;;2.30;;
3924;SDS011;1977;52.274;10.518;2023-07-31T00:23:17;2.50;;;2.00;;
3924;SDS011;1977;52.274;10.518;2023-07-31T00:25:44;2.50;;;2.30;;
3924;SDS011;1977;52.274;10.518;2023-07-31T00:28:11;2.30;;;2.20;;
3924;SDS011;1977;52.274;10.518;2023-07-31T00:30:38;2.10;;;2.00;;
3924;SDS011;1977;52.274;10.518;2023-07-31T00:33:05;2.50;;;2.30;;
3924;SDS011;1977;52.274;10.518;2023-07-31T00:35:32;2.40;;;2.27;;
3924;SDS011;1977;52.274;10.518;2023-07-31T00:37:59;2.33;;;2.10;;
3924;SDS011;1977;52.274;10.518;2023-07-31T00:40:27;2.60;;;2.00;;
3924;SDS011;1977;52.274;10.518;2023-07-31T00:42:54;4.30;;;2.50;;
3924;SDS011;1977;52.274;10.518;2023-07-31T00:45:21;2.50;;;2.30;;
3924;SDS011;1977;52.274;10.518;2023-07-31T00:47:51;2.90;;;1.90;;
3924;SDS011;1977;52.274;10.518;2023-07-31T00:50:19;3.60;;;2.50;;
3924;SDS011;1977;52.274;10.518;2023-07-31T00:52:45;6.20;;;2.63;;
3924;SDS011;1977;52.274;10.518;2023-07-31T00:55:12;4.10;;;2.50;;
3924;SDS011;1977;52.274;10.518;2023-07-31T00:57:41;6.27;;;2.03;;
3924;SDS011;1977;52.274;10.518;2023-07-31T01:00:08;2.87;;;2.43;;
3924;SDS011;1977;52.274;10.518;2023-07-31T01:02:36;2.63;;;2.43;;
3924;SDS011;1977;52.274;10.518;2023-07-31T01:05:03;3.50;;;2.50;;
3924;SDS011;1977;52.274;10.518;2023-07-31T01:07:33;2.33;;;2.23;;
3924;SDS011;1977;52.274;10.518;2023-07-31T01:10:07;2.60;;;2.40;;
3924;SDS011;1977;52.274;10.518;2023-07-31T01:12:40;2.53;;;2.40;;
3924;SDS011;1977;52.274;10.518;2023-07-31T01:15:09;3.23;;;2.07;;
3924;SDS011;1977;52.274;10.518;2023-07-31T01:17:36;2.47;;;2.13;;
3924;SDS011;1977;52.274;10.518;2023-07-31T01:20:04;3.03;;;2.27;;
3924;SDS011;1977;52.274;10.518;2023-07-31T01:22:40;2.97;;;2.40;;
3924;SDS011;1977;52.274;10.518;2023-07-31T01:28:38;2.70;;;2.30;;
3924;SDS011;1977;52.274;10.518;2023-07-31T01:31:12;2.77;;;2.50;;
3924;SDS011;1977;52.274;10.518;2023-07-31T01:33:49;2.83;;;2.63;;
3924;SDS011;1977;52.274;10.518;2023-07-31T01:36:18;2.40;;;2.30;;
3924;SDS011;1977;52.274;10.518;2023-07-31T01:38:45;3.33;;;2.33;;
3924;SDS011;1977;52.274;10.518;2023-07-31T01:41:13;2.80;;;2.57;;
3924;SDS011;1977;52.274;10.518;2023-07-31T01:43:43;2.30;;;2.10;;
3924;SDS011;1977;52.274;10.518;2023-07-31T01:46:09;2.40;;;2.30;;
3924;SDS011;1977;52.274;10.518;2023-07-31T01:48:36;2.87;;;2.67;;
3924;SDS011;1977;52.274;10.518;2023-07-31T01:51:03;2.50;;;2.10;;
3924;SDS011;1977;52.274;10.518;2023-07-31T01:53:30;4.10;;;2.33;;
3924;SDS011;1977;52.274;10.518;2023-07-31T01:55:57;3.23;;;2.13;;
3924;SDS011;1977;52.274;10.518;2023-07-31T01:58:26;2.33;;;2.13;;
3924;SDS011;1977;52.274;10.518;2023-07-31T02:00:53;1.83;;;1.73;;
3924;SDS011;1977;52.274;10.518;2023-07-31T02:03:19;2.03;;;1.93;;
3924;SDS011;1977;52.274;10.518;2023-07-31T02:05:46;2.27;;;1.73;;
3924;SDS011;1977;52.274;10.518;2023-07-31T02:08:14;2.63;;;2.43;;
3924;SDS011;1977;52.274;10.518;2023-07-31T02:10:41;1.80;;;1.70;;
3924;SDS011;1977;52.274;10.518;2023-07-31T02:13:08;3.03;;;1.90;;
3924;SDS011;1977;52.274;10.518;2023-07-31T02:15:37;2.03;;;1.67;;
3924;SDS011;1977;52.274;10.518;2023-07-31T02:18:04;1.93;;;1.57;;
3924;SDS011;1977;52.274;10.518;2023-07-31T02:20:33;1.97;;;1.50;;
3924;SDS011;1977;52.274;10.518;2023-07-31T02:23:00;1.90;;;1.80;;
3924;SDS011;1977;52.274;10.518;2023-07-31T02:25:27;1.93;;;1.83;;
3924;SDS011;1977;52.274;10.518;2023-07-31T02:27:53;1.93;;;1.83;;
3924;SDS011;1977;52.274;10.518;2023-07-31T02:30:20;6.87;;;2.03;;
3924;SDS011;1977;52.274;10.518;2023-07-31T02:32:48;3.27;;;2.97;;
3924;SDS011;1977;52.274;10.518;2023-07-31T02:35:15;3.80;;;3.00;;
3924;SDS011;1977;52.274;10.518;2023-07-31T02:37:43;2.60;;;2.40;;
3924;SDS011;1977;52.274;10.518;2023-07-31T02:40:10;7.67;;;2.83;;
3924;SDS011;1977;52.274;10.518;2023-07-31T02:42:38;2.77;;;2.57;;
3924;SDS011;1977;52.274;10.518;2023-07-31T02:45:05;2.70;;;2.60;;
3924;SDS011;1977;52.274;10.518;2023-07-31T02:47:32;2.77;;;2.57;;
3924;SDS011;1977;52.274;10.518;2023-07-31T02:50:01;2.80;;;2.60;;
3924;SDS011;1977;52.274;10.518;2023-07-31T02:52:28;3.70;;;2.53;;
3924;SDS011;1977;52.274;10.518;2023-07-31T02:54:54;2.80;;;2.60;;
3924;SDS011;1977;52.274;10.518;2023-07-31T02:57:21;2.23;;;2.13;;
3924;SDS011;1977;52.274;10.518;2023-07-31T02:59:48;2.30;;;2.20;;
3924;SDS011;1977;52.274;10.518;2023-07-31T03:02:15;1.70;;;1.60;;
3924;SDS011;1977;52.274;10.518;2023-07-31T03:04:42;4.00;;;2.50;;
3924;SDS011;1977;52.274;10.518;2023-07-31T03:07:10;2.27;;;2.17;;
3924;SDS011;1977;52.274;10.518;2023-07-31T03:09:37;2.03;;;1.93;;
3924;SDS011;1977;52.274;10.518;2023-07-31T03:12:04;2.40;;;2.20;;
3924;SDS011;1977;52.274;10.518;2023-07-31T03:14:31;2.80;;;2.20;;
3924;SDS011;1977;52.274;10.518;2023-07-31T03:16:58;2.40;;;1.80;;
3924;SDS011;1977;52.274;10.518;2023-07-31T03:19:25;1.70;;;1.60;;
3924;SDS011;1977;52.274;10.518;2023-07-31T03:21:52;2.27;;;2.07;;
3924;SDS011;1977;52.274;10.518;2023-07-31T03:24:20;2.00;;;1.90;;
3924;SDS011;1977;52.274;10.518;2023-07-31T03:26:47;1.80;;;1.70;;
3924;SDS011;1977;52.274;10.518;2023-07-31T03:29:14;1.60;;;1.50;;
3924;SDS011;1977;52.274;10.518;2023-07-31T03:31:40;1.60;;;1.50;;
3924;SDS011;1977;52.274;10.518;2023-07-31T03:34:07;1.60;;;1.50;;
3924;SDS011;1977;52.274;10.518;2023-07-31T03:36:34;1.50;;;1.40;;
3924;SDS011;1977;52.274;10.518;2023-07-31T03:39:01;1.37;;;1.27;;
3924;SDS011;1977;52.274;10.518;2023-07-31T03:41:30;1.80;;;1.43;;
3924;SDS011;1977;52.274;10.518;2023-07-31T03:43:56;1.50;;;1.40;;
3924;SDS011;1977;52.274;10.518;2023-07-31T03:46:23;1.57;;;1.43;;
3924;SDS011;1977;52.274;10.518;2023-07-31T03:48:50;1.30;;;1.20;;
3924;SDS011;1977;52.274;10.518;2023-07-31T03:51:17;1.60;;;1.50;;
3924;SDS011;1977;52.274;10.518;2023-07-31T03:53:44;1.67;;;1.57;;
3924;SDS011;1977;52.274;10.518;2023-07-31T03:56:11;1.70;;;1.60;;
3924;SDS011;1977;52.274;10.518;2023-07-31T03:58:39;1.50;;;1.40;;
3924;SDS011;1977;52.274;10.518;2023-07-31T04:01:06;1.53;;;1.43;;
3924;SDS011;1977;52.274;10.518;2023-07-31T04:03:33;1.40;;;1.30;;
3924;SDS011;1977;52.274;10.518;2023-07-31T04:06:00;1.80;;;1.70;;
3924;SDS011;1977;52.274;10.518;2023-07-31T04:08:26;2.00;;;1.90;;
3924;SDS011;1977;52.274;10.518;2023-07-31T04:10:53;1.40;;;1.30;;
3924;SDS011;1977;52.274;10.518;2023-07-31T04:13:21;2.37;;;1.47;;
3924;SDS011;1977;52.274;10.518;2023-07-31T04:15:49;1.83;;;1.70;;
3924;SDS011;1977;52.274;10.518;2023-07-31T04:18:16;2.13;;;1.40;;
3924;SDS011;1977;52.274;10.518;2023-07-31T04:20:43;1.50;;;1.40;;
3924;SDS011;1977;52.274;10.518;2023-07-31T04:23:10;1.43;;;1.33;;
3924;SDS011;1977;52.274;10.518;2023-07-31T04:25:37;1.53;;;1.43;;
3924;SDS011;1977;52.274;10.518;2023-07-31T04:28:04;1.47;;;1.37;;
3924;SDS011;1977;52.274;10.518;2023-07-31T04:30:31;3.30;;;1.73;;
3924;SDS011;1977;52.274;10.518;2023-07-31T04:32:59;1.43;;;1.40;;
3924;SDS011;1977;52.274;10.518;2023-07-31T04:35:25;2.13;;;1.60;;
3924;SDS011;1977;52.274;10.518;2023-07-31T04:37:53;1.40;;;1.30;;
3924;SDS011;1977;52.274;10.518;2023-07-31T04:40:20;2.43;;;1.53;;
3924;SDS011;1977;52.274;10.518;2023-07-31T04:42:47;1.70;;;1.60;;
3924;SDS011;1977;52.274;10.518;2023-07-31T04:45:14;1.70;;;1.60;;
3924;SDS011;1977;52.274;10.518;2023-07-31T04:47:41;1.47;;;1.37;;
3924;SDS011;1977;52.274;10.518;2023-07-31T04:50:09;1.50;;;1.40;;
3924;SDS011;1977;52.274;10.518;2023-07-31T04:52:36;1.50;;;1.40;;
3924;SDS011;1977;52.274;10.518;2023-07-31T04:55:03;1.23;;;1.17;;
3924;SDS011;1977;52.274;10.518;2023-07-31T04:57:30;1.43;;;1.37;;
3924;SDS011;1977;52.274;10.518;2023-07-31T04:59:57;2.70;;;1.47;;
3924;SDS011;1977;52.274;10.518;2023-07-31T05:02:24;1.60;;;1.50;;
3924;SDS011;1977;52.274;10.518;2023-07-31T05:04:50;1.30;;;1.20;;
3924;SDS011;1977;52.274;10.518;2023-07-31T05:07:19;1.40;;;1.30;;
3924;SDS011;1977;52.274;10.518;2023-07-31T05:09:45;1.60;;;1.50;;
3924;SDS011;1977;52.274;10.518;2023-07-31T05:12:15;1.50;;;1.43;;
3924;SDS011;1977;52.274;10.518;2023-07-31T05:14:42;2.50;;;1.77;;
3924;SDS011;1977;52.274;10.518;2023-07-31T05:17:09;1.80;;;1.70;;
3924;SDS011;1977;52.274;10.518;2023-07-31T05:19:35;2.20;;;1.50;;
3924;SDS011;1977;52.274;10.518;2023-07-31T05:22:02;1.57;;;1.47;;
3924;SDS011;1977;52.274;10.518;2023-07-31T05:24:31;1.70;;;1.60;;
3924;SDS011;1977;52.274;10.518;2023-07-31T05:26:58;1.60;;;1.50;;
3924;SDS011;1977;52.274;10.518;2023-07-31T05:29:25;1.30;;;1.20;;
3924;SDS011;1977;52.274;10.518;2023-07-31T05:31:52;1.60;;;1.50;;
3924;SDS011;1977;52.274;10.518;2023-07-31T05:34:18;1.73;;;1.40;;
3924;SDS011;1977;52.274;10.518;2023-07-31T05:36:45;1.40;;;1.30;;
3924;SDS011;1977;52.274;10.518;2023-07-31T05:39:12;1.50;;;1.40;;
3924;SDS011;1977;52.274;10.518;2023-07-31T05:41:40;1.90;;;1.80;;
3924;SDS011;1977;52.274;10.518;2023-07-31T05:44:07;2.30;;;1.43;;
3924;SDS011;1977;52.274;10.518;2023-07-31T05:46:33;1.93;;;1.50;;
3924;SDS011;1977;52.274;10.518;2023-07-31T05:49:00;1.50;;;1.40;;
3924;SDS011;1977;52.274;10.518;2023-07-31T05:51:27;1.70;;;1.60;;
3924;SDS011;1977;52.274;10.518;2023-07-31T05:53:54;1.60;;;1.50;;
3924;SDS011;1977;52.274;10.518;2023-07-31T05:56:21;1.47;;;1.37;;
3924;SDS011;1977;52.274;10.518;2023-07-31T05:58:49;1.37;;;1.27;;
3924;SDS011;1977;52.274;10.518;2023-07-31T06:01:16;2.10;;;1.60;;
3924;SDS011;1977;52.274;10.518;2023-07-31T06:03:43;2.30;;;2.20;;
3924;SDS011;1977;52.274;10.518;2023-07-31T06:06:10;1.83;;;1.73;;
3924;SDS011;1977;52.274;10.518;2023-07-31T06:08:38;1.97;;;1.87;;
3924;SDS011;1977;52.274;10.518;2023-07-31T06:11:05;2.43;;;1.70;;
3924;SDS011;1977;52.274;10.518;2023-07-31T06:13:34;2.13;;;2.03;;
3924;SDS011;1977;52.274;10.518;2023-07-31T06:16:02;4.10;;;2.33;;
3924;SDS011;1977;52.274;10.518;2023-07-31T06:18:30;2.70;;;2.50;;
3924;SDS011;1977;52.274;10.518;2023-07-31T06:20:57;2.47;;;2.37;;
3924;SDS011;1977;52.274;10.518;2023-07-31T06:23:24;2.50;;;2.30;;
3924;SDS011;1977;52.274;10.518;2023-07-31T06:25:50;2.33;;;2.23;;
3924;SDS011;1977;52.274;10.518;2023-07-31T06:28:17;2.73;;;2.53;;
3924;SDS011;1977;52.274;10.518;2023-07-31T06:30:44;2.33;;;2.10;;
3924;SDS011;1977;52.274;10.518;2023-07-31T06:33:12;3.03;;;2.83;;
3924;SDS011;1977;52.274;10.518;2023-07-31T06:35:39;3.23;;;3.03;;
3924;SDS011;1977;52.274;10.518;2023-07-31T06:38:05;3.03;;;2.83;;
3924;SDS011;1977;52.274;10.518;2023-07-31T06:40:32;3.33;;;3.13;;
3924;SDS011;1977;52.274;10.518;2023-07-31T06:42:59;3.43;;;3.23;;
3924;SDS011;1977;52.274;10.518;2023-07-31T06:45:31;8.27;;;3.77;;
3924;SDS011;1977;52.274;10.518;2023-07-31T06:47:58;3.00;;;2.73;;
3924;SDS011;1977;52.274;10.518;2023-07-31T06:50:30;3.97;;;3.60;;
3924;SDS011;1977;52.274;10.518;2023-07-31T06:52:57;3.67;;;3.37;;
3924;SDS011;1977;52.274;10.518;2023-07-31T06:55:24;5.43;;;3.47;;
3924;SDS011;1977;52.274;10.518;2023-07-31T06:57:52;4.03;;;3.80;;
3924;SDS011;1977;52.274;10.518;2023-07-31T07:00:20;3.57;;;3.27;;
3924;SDS011;1977;52.274;10.518;2023-07-31T07:02:48;3.40;;;3.20;;
3924;SDS011;1977;52.274;10.518;2023-07-31T07:05:16;3.77;;;3.57;;
3924;SDS011;1977;52.274;10.518;2023-07-31T07:07:44;3.23;;;3.03;;
3924;SDS011;1977;52.274;10.518;2023-07-31T07:10:11;4.57;;;3.47;;
3924;SDS011;1977;52.274;10.518;2023-07-31T07:12:38;4.30;;;4.00;;
3924;SDS011;1977;52.274;10.518;2023-07-31T07:15:06;5.00;;;4.60;;
3924;SDS011;1977;52.274;10.518;2023-07-31T07:17:33;4.83;;;4.33;;
3924;SDS011;1977;52.274;10.518;2023-07-31T07:20:00;4.57;;;4.27;;
3924;SDS011;1977;52.274;10.518;2023-07-31T07:22:28;4.80;;;3.60;;
3924;SDS011;1977;52.274;10.518;2023-07-31T07:24:56;7.17;;;5.10;;
3924;SDS011;1977;52.274;10.518;2023-07-31T07:27:23;5.10;;;4.33;;
3924;SDS011;1977;52.274;10.518;2023-07-31T07:29:50;5.83;;;5.33;;
3924;SDS011;1977;52.274;10.518;2023-07-31T07:32:17;6.00;;;5.03;;
3924;SDS011;1977;52.274;10.518;2023-07-31T07:34:44;8.00;;;4.80;;
3924;SDS011;1977;52.274;10.518;2023-07-31T07:37:11;5.53;;;4.70;;
3924;SDS011;1977;52.274;10.518;2023-07-31T07:39:38;7.10;;;5.37;;
3924;SDS011;1977;52.274;10.518;2023-07-31T07:42:06;8.20;;;6.27;;
3924;SDS011;1977;52.274;10.518;2023-07-31T07:44:33;10.43;;;5.60;;
3924;SDS011;1977;52.274;10.518;2023-07-31T07:46:59;6.57;;;5.00;;
3924;SDS011;1977;52.274;10.518;2023-07-31T07:49:26;8.43;;;5.57;;
3924;SDS011;1977;52.274;10.518;2023-07-31T07:51:53;7.13;;;6.10;;
3924;SDS011;1977;52.274;10.518;2023-07-31T07:54:20;6.70;;;5.80;;
3924;SDS011;1977;52.274;10.518;2023-07-31T07:56:47;6.37;;;5.53;;
3924;SDS011;1977;52.274;10.518;2023-07-31T07:59:16;8.63;;;6.07;;
3924;SDS011;1977;52.274;10.518;2023-07-31T08:01:42;7.07;;;5.23;;
3924;SDS011;1977;52.274;10.518;2023-07-31T08:04:09;6.63;;;5.97;;
3924;SDS011;1977;52.274;10.518;2023-07-31T08:06:36;7.50;;;6.00;;
3924;SDS011;1977;52.274;10.518;2023-07-31T08:09:03;6.70;;;5.77;;
3924;SDS011;1977;52.274;10.518;2023-07-31T08:11:31;6.10;;;5.47;;
3924;SDS011;1977;52.274;10.518;2023-07-31T08:13:58;6.77;;;5.73;;
3924;SDS011;1977;52.274;10.518;2023-07-31T08:16:26;6.37;;;5.60;;
3924;SDS011;1977;52.274;10.518;2023-07-31T08:18:53;6.63;;;5.00;;
3924;SDS011;1977;52.274;10.518;2023-07-31T08:21:21;6.80;;;6.10;;
3924;SDS011;1977;52.274;10.518;2023-07-31T08:23:48;7.50;;;5.00;;
3924;SDS011;1977;52.274;10.518;2023-07-31T08:26:15;6.67;;;5.20;;
3924;SDS011;1977;52.274;10.518;2023-07-31T08:28:42;5.80;;;5.30;;
3924;SDS011;1977;52.274;10.518;2023-07-31T08:31:09;9.07;;;6.07;;
3924;SDS011;1977;52.274;10.518;2023-07-31T08:33:37;8.30;;;5.43;;
3924;SDS011;1977;52.274;10.518;2023-07-31T08:36:04;8.10;;;5.90;;
3924;SDS011;1977;52.274;10.518;2023-07-31T08:38:31;6.23;;;5.60;;
3924;SDS011;1977;52.274;10.518;2023-07-31T08:40:58;7.13;;;5.50;;
3924;SDS011;1977;52.274;10.518;2023-07-31T08:43:25;5.90;;;5.30;;
3924;SDS011;1977;52.274;10.518;2023-07-31T08:45:52;6.13;;;5.53;;
3924;SDS011;1977;52.274;10.518;2023-07-31T08:48:20;9.37;;;5.67;;
3924;SDS011;1977;52.274;10.518;2023-07-31T08:50:49;6.13;;;5.53;;
3924;SDS011;1977;52.274;10.518;2023-07-31T08:53:17;6.20;;;5.27;;
3924;SDS011;1977;52.274;10.518;2023-07-31T08:55:44;6.07;;;5.57;;
3924;SDS011;1977;52.274;10.518;2023-07-31T08:58:12;6.60;;;5.77;;
3924;SDS011;1977;52.274;10.518;2023-07-31T09:00:40;6.53;;;6.00;;
3924;SDS011;1977;52.274;10.518;2023-07-31T09:03:09;6.43;;;5.63;;
3924;SDS011;1977;52.274;10.518;2023-07-31T09:05:40;4.97;;;4.40;;
3924;SDS011;1977;52.274;10.518;2023-07-31T09:08:10;6.87;;;5.97;;
3924;SDS011;1977;52.274;10.518;2023-07-31T09:10:40;6.20;;;5.30;;
3924;SDS011;1977;52.274;10.518;2023-07-31T09:13:08;6.13;;;5.00;;
3924;SDS011;1977;52.274;10.518;2023-07-31T09:15:35;6.50;;;5.33;;
3924;SDS011;1977;52.274;10.518;2023-07-31T09:18:02;5.33;;;4.83;;
3924;SDS011;1977;52.274;10.518;2023-07-31T09:20:31;5.50;;;5.10;;
3924;SDS011;1977;52.274;10.518;2023-07-31T09:23:05;6.23;;;5.53;;
3924;SDS011;1977;52.274;10.518;2023-07-31T09:25:34;5.03;;;4.63;;
3924;SDS011;1977;52.274;10.518;2023-07-31T09:28:02;5.43;;;5.00;;
3924;SDS011;1977;52.274;10.518;2023-07-31T09:30:31;5.27;;;4.60;;
3924;SDS011;1977;52.274;10.518;2023-07-31T09:33:09;5.70;;;5.17;;
3924;SDS011;1977;52.274;10.518;2023-07-31T09:35:36;4.43;;;4.03;;
3924;SDS011;1977;52.274;10.518;2023-07-31T09:38:06;5.00;;;4.50;;
3924;SDS011;1977;52.274;10.518;2023-07-31T09:40:36;6.57;;;4.93;;
3924;SDS011;1977;52.274;10.518;2023-07-31T09:45:56;4.13;;;3.83;;
3924;SDS011;1977;52.274;10.518;2023-07-31T09:48:23;4.37;;;4.00;;
3924;SDS011;1977;52.274;10.518;2023-07-31T09:50:52;3.90;;;3.53;;
3924;SDS011;1977;52.274;10.518;2023-07-31T09:53:20;7.53;;;4.13;;
3924;SDS011;1977;52.274;10.518;2023-07-31T09:55:56;5.10;;;4.07;;
3924;SDS011;1977;52.274;10.518;2023-07-31T09:58:25;4.77;;;4.37;;
3924;SDS011;1977;52.274;10.518;2023-07-31T10:00:55;3.80;;;3.50;;
3924;SDS011;1977;52.274;10.518;2023-07-31T10:03:24;6.60;;;3.70;;
3924;SDS011;1977;52.274;10.518;2023-07-31T10:05:52;5.30;;;4.50;;
3924;SDS011;1977;52.274;10.518;2023-07-31T10:08:21;4.10;;;3.80;;
3924;SDS011;1977;52.274;10.518;2023-07-31T10:10:54;5.40;;;4.43;;
3924;SDS011;1977;52.274;10.518;2023-07-31T10:13:24;3.83;;;3.53;;
3924;SDS011;1977;52.274;10.518;2023-07-31T10:15:53;8.50;;;5.67;;
3924;SDS011;1977;52.274;10.518;2023-07-31T10:18:23;4.27;;;3.77;;
3924;SDS011;1977;52.274;10.518;2023-07-31T10:20:51;3.70;;;3.50;;
3924;SDS011;1977;52.274;10.518;2023-07-31T10:23:18;5.47;;;3.60;;
3924;SDS011;1977;52.274;10.518;2023-07-31T10:25:45;4.83;;;4.30;;
3924;SDS011;1977;52.274;10.518;2023-07-31T10:28:14;3.93;;;3.40;;
3924;SDS011;1977;52.274;10.518;2023-07-31T10:30:41;5.27;;;3.60;;
3924;SDS011;1977;52.274;10.518;2023-07-31T10:33:08;4.33;;;3.50;;
3924;SDS011;1977;52.274;10.518;2023-07-31T10:35:35;3.67;;;3.33;;
3924;SDS011;1977;52.274;10.518;2023-07-31T10:40:49;3.40;;;3.10;;
3924;SDS011;1977;52.274;10.518;2023-07-31T10:43:24;3.60;;;3.30;;
3924;SDS011;1977;52.274;10.518;2023-07-31T10:45:52;4.03;;;3.43;;
3924;SDS011;1977;52.274;10.518;2023-07-31T10:48:19;3.60;;;3.40;;
3924;SDS011;1977;52.274;10.518;2023-07-31T10:50:48;2.90;;;2.70;;
3924;SDS011;1977;52.274;10.518;2023-07-31T10:53:22;6.03;;;3.00;;
3924;SDS011;1977;52.274;10.518;2023-07-31T10:55:50;3.47;;;3.27;;
3924;SDS011;1977;52.274;10.518;2023-07-31T10:58:18;3.17;;;2.97;;
3924;SDS011;1977;52.274;10.518;2023-07-31T11:00:47;3.70;;;3.50;;
3924;SDS011;1977;52.274;10.518;2023-07-31T11:03:14;3.20;;;2.90;;
3924;SDS011;1977;52.274;10.518;2023-07-31T11:05:43;2.90;;;2.30;;
3924;SDS011;1977;52.274;10.518;2023-07-31T11:08:11;3.23;;;2.93;;
3924;SDS011;1977;52.274;10.518;2023-07-31T11:10:38;2.90;;;2.80;;
3924;SDS011;1977;52.274;10.518;2023-07-31T11:13:05;2.77;;;2.53;;
3924;SDS011;1977;52.274;10.518;2023-07-31T11:15:32;2.93;;;2.60;;
3924;SDS011;1977;52.274;10.518;2023-07-31T11:18:01;3.87;;;3.07;;
3924;SDS011;1977;52.274;10.518;2023-07-31T11:20:30;3.60;;;3.30;;
3924;SDS011;1977;52.274;10.518;2023-07-31T11:22:58;3.67;;;3.40;;
3924;SDS011;1977;52.274;10.518;2023-07-31T11:28:01;2.80;;;2.60;;
3924;SDS011;1977;52.274;10.518;2023-07-31T11:30:47;2.80;;;2.60;;
3924;SDS011;1977;52.274;10.518;2023-07-31T11:33:15;3.90;;;2.83;;
3924;SDS011;1977;52.274;10.518;2023-07-31T11:35:47;3.23;;;3.03;;
3924;SDS011;1977;52.274;10.518;2023-07-31T11:38:20;3.77;;;2.57;;
3924;SDS011;1977;52.274;10.518;2023-07-31T11:40:52;3.30;;;3.07;;
3924;SDS011;1977;52.274;10.518;2023-07-31T11:43:20;2.60;;;2.40;;
3924;SDS011;1977;52.274;10.518;2023-07-31T11:45:53;3.90;;;2.70;;
3924;SDS011;1977;52.274;10.518;2023-07-31T11:48:31;3.13;;;2.50;;
3924;SDS011;1977;52.274;10.518;2023-07-31T11:51:05;2.97;;;2.77;;
3924;SDS011;1977;52.274;10.518;2023-07-31T11:53:43;3.87;;;3.57;;
3924;SDS011;1977;52.274;10.518;2023-07-31T11:56:13;3.37;;;3.17;;
3924;SDS011;1977;52.274;10.518;2023-07-31T11:58:48;2.70;;;2.47;;
3924;SDS011;1977;52.274;10.518;2023-07-31T12:01:21;3.67;;;2.73;;
3924;SDS011;1977;52.274;10.518;2023-07-31T12:03:51;2.63;;;2.43;;
3924;SDS011;1977;52.274;10.518;2023-07-31T12:06:18;3.00;;;2.83;;
3924;SDS011;1977;52.274;10.518;2023-07-31T12:08:49;3.47;;;2.90;;
3924;SDS011;1977;52.274;10.518;2023-07-31T12:11:15;2.93;;;2.73;;
3924;SDS011;1977;52.274;10.518;2023-07-31T12:13:45;3.60;;;3.30;;
3924;SDS011;1977;52.274;10.518;2023-07-31T12:16:18;3.00;;;2.80;;
3924;SDS011;1977;52.274;10.518;2023-07-31T12:18:49;4.77;;;3.20;;
3924;SDS011;1977;52.274;10.518;2023-07-31T12:21:19;3.60;;;3.30;;
3924;SDS011;1977;52.274;10.518;2023-07-31T12:23:48;3.83;;;3.10;;
3924;SDS011;1977;52.274;10.518;2023-07-31T12:26:21;2.83;;;2.73;;
3924;SDS011;1977;52.274;10.518;2023-07-31T12:28:50;3.83;;;3.53;;
3924;SDS011;1977;52.274;10.518;2023-07-31T12:31:19;3.27;;;2.97;;
3924;SDS011;1977;52.274;10.518;2023-07-31T12:33:51;2.80;;;2.60;;
3924;SDS011;1977;52.274;10.518;2023-07-31T12:36:30;4.70;;;3.07;;
3924;SDS011;1977;52.274;10.518;2023-07-31T12:39:00;2.60;;;2.40;;
3924;SDS011;1977;52.274;10.518;2023-07-31T12:41:29;14.83;;;4.67;;
3924;SDS011;1977;52.274;10.518;2023-07-31T12:43:56;2.70;;;2.60;;
3924;SDS011;1977;52.274;10.518;2023-07-31T12:46:25;2.50;;;2.30;;
3924;SDS011;1977;52.274;10.518;2023-07-31T12:49:00;2.37;;;2.27;;
3924;SDS011;1977;52.274;10.518;2023-07-31T12:51:28;2.83;;;2.63;;
3924;SDS011;1977;52.274;10.518;2023-07-31T12:53:57;2.53;;;2.43;;
3924;SDS011;1977;52.274;10.518;2023-07-31T12:56:24;2.70;;;2.40;;
3924;SDS011;1977;52.274;10.518;2023-07-31T12:58:57;3.57;;;2.53;;
3924;SDS011;1977;52.274;10.518;2023-07-31T13:01:30;2.70;;;2.50;;
3924;SDS011;1977;52.274;10.518;2023-07-31T13:04:11;2.83;;;2.63;;
3924;SDS011;1977;52.274;10.518;2023-07-31T13:06:39;2.20;;;2.10;;
3924;SDS011;1977;52.274;10.518;2023-07-31T13:09:11;2.23;;;2.13;;
3924;SDS011;1977;52.274;10.518;2023-07-31T13:11:51;2.50;;;2.40;;
3924;SDS011;1977;52.274;10.518;2023-07-31T13:14:41;3.10;;;2.43;;
3924;SDS011;1977;52.274;10.518;2023-07-31T13:17:09;2.30;;;2.20;;
3924;SDS011;1977;52.274;10.518;2023-07-31T13:19:38;2.53;;;2.33;;
3924;SDS011;1977;52.274;10.518;2023-07-31T13:22:20;2.27;;;1.90;;
3924;SDS011;1977;52.274;10.518;2023-07-31T13:24:56;2.00;;;1.90;;
3924;SDS011;1977;52.274;10.518;2023-07-31T13:27:30;2.20;;;2.07;;
3924;SDS011;1977;52.274;10.518;2023-07-31T13:30:00;4.67;;;1.90;;
3924;SDS011;1977;52.274;10.518;2023-07-31T13:32:39;2.20;;;2.10;;
3924;SDS011;1977;52.274;10.518;2023-07-31T13:35:22;2.00;;;1.90;;
3924;SDS011;1977;52.274;10.518;2023-07-31T13:38:08;1.93;;;1.83;;
3924;SDS011;1977;52.274;10.518;2023-07-31T13:40:49;1.77;;;1.67;;
3924;SDS011;1977;52.274;10.518;2023-07-31T13:43:23;2.03;;;1.70;;
3924;SDS011;1977;52.274;10.518;2023-07-31T13:46:04;2.00;;;1.90;;
3924;SDS011;1977;52.274;10.518;2023-07-31T13:48:37;2.30;;;1.50;;
3924;SDS011;1977;52.274;10.518;2023-07-31T13:51:08;1.70;;;1.60;;
3924;SDS011;1977;52.274;10.518;2023-07-31T13:53:42;1.27;;;1.17;;
3924;SDS011;1977;52.274;10.518;2023-07-31T13:56:15;1.03;;;1.03;;
3924;SDS011;1977;52.274;10.518;2023-07-31T13:58:49;1.47;;;1.37;;
3924;SDS011;1977;52.274;10.518;2023-07-31T14:01:16;1.20;;;1.10;;
3924;SDS011;1977;52.274;10.518;2023-07-31T14:03:51;1.20;;;1.10;;
3924;SDS011;1977;52.274;10.518;2023-07-31T14:06:22;2.83;;;1.20;;
3924;SDS011;1977;52.274;10.518;2023-07-31T14:08:49;1.20;;;1.10;;
3924;SDS011;1977;52.274;10.518;2023-07-31T14:11:16;1.20;;;1.10;;
3924;SDS011;1977;52.274;10.518;2023-07-31T14:13:45;1.50;;;1.10;;
3924;SDS011;1977;52.274;10.518;2023-07-31T14:16:13;1.10;;;1.10;;
3924;SDS011;1977;52.274;10.518;2023-07-31T14:18:46;0.90;;;0.90;;
3924;SDS011;1977;52.274;10.518;2023-07-31T14:21:25;0.97;;;0.97;;
3924;SDS011;1977;52.274;10.518;2023-07-31T14:23:58;1.10;;;1.10;;
3924;SDS011;1977;52.274;10.518;2023-07-31T14:26:28;1.10;;;1.10;;
3924;SDS011;1977;52.274;10.518;2023-07-31T14:28:59;1.00;;;0.90;;
3924;SDS011;1977;52.274;10.518;2023-07-31T14:31:35;1.17;;;1.07;;
3924;SDS011;1977;52.274;10.518;2023-07-31T14:34:09;1.10;;;1.00;;
3924;SDS011;1977;52.274;10.518;2023-07-31T14:36:42;1.13;;;1.10;;
3924;SDS011;1977;52.274;10.518;2023-07-31T14:39:22;1.83;;;0.97;;
3924;SDS011;1977;52.274;10.518;2023-07-31T14:42:00;1.10;;;1.10;;
3924;SDS011;1977;52.274;10.518;2023-07-31T14:44:29;1.20;;;1.10;;
3924;SDS011;1977;52.274;10.518;2023-07-31T14:46:59;1.10;;;1.10;;
3924;SDS011;1977;52.274;10.518;2023-07-31T14:49:29;0.90;;;0.90;;
3924;SDS011;1977;52.274;10.518;2023-07-31T14:51:59;4.17;;;1.53;;
3924;SDS011;1977;52.274;10.518;2023-07-31T14:54:30;1.20;;;1.10;;
3924;SDS011;1977;52.274;10.518;2023-07-31T14:57:12;1.20;;;1.20;;
3924;SDS011;1977;52.274;10.518;2023-07-31T14:59:50;1.60;;;1.10;;
3924;SDS011;1977;52.274;10.518;2023-07-31T15:02:17;1.07;;;1.07;;
3924;SDS011;1977;52.274;10.518;2023-07-31T15:04:49;1.43;;;1.20;;
3924;SDS011;1977;52.274;10.518;2023-07-31T15:07:17;1.40;;;1.30;;
3924;SDS011;1977;52.274;10.518;2023-07-31T15:09:44;1.80;;;1.70;;
3924;SDS011;1977;52.274;10.518;2023-07-31T15:12:15;1.50;;;1.40;;
3924;SDS011;1977;52.274;10.518;2023-07-31T15:14:50;3.63;;;1.20;;
3924;SDS011;1977;52.274;10.518;2023-07-31T15:17:21;1.23;;;1.20;;
3924;SDS011;1977;52.274;10.518;2023-07-31T15:19:50;4.10;;;1.60;;
3924;SDS011;1977;52.274;10.518;2023-07-31T15:22:21;1.37;;;1.20;;
3924;SDS011;1977;52.274;10.518;2023-07-31T15:24:58;1.57;;;1.47;;
3924;SDS011;1977;52.274;10.518;2023-07-31T15:27:31;1.10;;;1.10;;
3924;SDS011;1977;52.274;10.518;2023-07-31T15:30:10;1.80;;;1.70;;
3924;SDS011;1977;52.274;10.518;2023-07-31T15:32:38;1.67;;;1.57;;
3924;SDS011;1977;52.274;10.518;2023-07-31T15:35:13;1.40;;;1.30;;
3924;SDS011;1977;52.274;10.518;2023-07-31T15:37:42;1.40;;;1.30;;
3924;SDS011;1977;52.274;10.518;2023-07-31T15:40:23;1.30;;;1.20;;
3924;SDS011;1977;52.274;10.518;2023-07-31T15:43:00;1.40;;;1.40;;